createdAt,value
2023-04-23T00:00:23.855Z,31.48
2023-04-23T00:02:52.921Z,37.33
2023-04-23T00:05:20.189Z,37.15
2023-04-23T00:07:46.759Z,34.03
2023-04-23T00:10:13.297Z,41.97
2023-04-23T00:12:39.878Z,39.95
2023-04-23T00:15:06.932Z,23.42
2023-04-23T00:17:33.304Z,29.23
2023-04-23T00:19:59.620Z,39.35
2023-04-23T00:22:25.996Z,29.75
2023-04-23T00:24:52.366Z,29.98
2023-04-23T00:27:21.029Z,30.88
2023-04-23T00:29:47.375Z,38.13
2023-04-23T00:32:14.894Z,27.13
2023-04-23T00:34:41.562Z,34.95
2023-04-23T00:37:08.212Z,36.88
2023-04-23T00:39:35.929Z,34.42
2023-04-23T00:42:07.091Z,28.75
2023-04-23T00:44:33.513Z,29.13
2023-04-23T00:47:00.454Z,34.13
2023-04-23T00:49:27.231Z,30.88
2023-04-23T00:51:53.624Z,28.55
2023-04-23T00:54:19.965Z,30.83
2023-04-23T00:56:46.468Z,31.95
2023-04-23T00:59:12.818Z,26.33
2023-04-23T01:01:39.419Z,31.52
2023-04-23T01:04:06.165Z,31.90
2023-04-23T01:06:32.799Z,32.55
2023-04-23T01:08:59.385Z,28.42
2023-04-23T01:11:25.765Z,33.13
2023-04-23T01:13:52.194Z,24.33
2023-04-23T01:16:18.815Z,36.30
2023-04-23T01:18:45.207Z,24.50
2023-04-23T01:21:12.206Z,27.88
2023-04-23T01:23:38.815Z,40.45
2023-04-23T01:26:05.359Z,28.35
2023-04-23T01:28:32.215Z,32.05
2023-04-23T01:30:59.114Z,39.38
2023-04-23T01:33:26.305Z,41.75
2023-04-23T01:35:53.131Z,34.22
2023-04-23T01:38:20.170Z,34.60
2023-04-23T01:40:46.940Z,28.88
2023-04-23T01:43:14.558Z,27.48
2023-04-23T01:45:41.409Z,38.47
2023-04-23T01:48:07.774Z,38.55
2023-04-23T01:50:34.395Z,34.58
2023-04-23T01:53:00.783Z,37.67
2023-04-23T01:55:27.373Z,32.75
2023-04-23T01:57:53.797Z,29.73
2023-04-23T02:00:20.680Z,14.88
2023-04-23T02:02:47.107Z,31.83
2023-04-23T02:05:15.041Z,35.65
2023-04-23T02:07:41.525Z,32.97
2023-04-23T02:10:08.364Z,34.95
2023-04-23T02:12:34.989Z,36.30
2023-04-23T02:15:01.457Z,28.40
2023-04-23T02:17:28.266Z,30.48
2023-04-23T02:19:55.860Z,27.65
2023-04-23T02:22:24.993Z,28.25
2023-04-23T02:24:52.665Z,20.65
2023-04-23T02:27:19.428Z,35.17
2023-04-23T02:29:46.169Z,25.05
2023-04-23T02:32:12.548Z,25.52
2023-04-23T02:34:39.055Z,22.67
2023-04-23T02:37:05.822Z,25.08
2023-04-23T02:39:32.449Z,24.48
2023-04-23T02:41:58.892Z,19.52
2023-04-23T02:44:25.622Z,22.15
2023-04-23T02:46:52.440Z,25.52
2023-04-23T02:49:20.280Z,23.73
2023-04-23T02:51:46.917Z,24.10
2023-04-23T02:54:13.600Z,21.25
2023-04-23T02:56:40.061Z,24.05
2023-04-23T02:59:06.842Z,24.55
2023-04-23T03:01:33.309Z,22.77
2023-04-23T03:04:00.180Z,20.58
2023-04-23T03:06:26.848Z,24.05
2023-04-23T03:08:53.185Z,20.98
2023-04-23T03:11:19.510Z,21.35
2023-04-23T03:13:45.928Z,22.05
2023-04-23T03:16:12.315Z,15.60
2023-04-23T03:18:38.747Z,19.33
2023-04-23T03:21:05.133Z,18.67
2023-04-23T03:23:31.587Z,22.48
2023-04-23T03:25:58.016Z,20.48
2023-04-23T03:28:24.430Z,16.30
2023-04-23T03:30:50.897Z,21.65
2023-04-23T03:33:17.288Z,19.63
2023-04-23T03:35:43.730Z,22.95
2023-04-23T03:38:10.073Z,13.65
2023-04-23T03:40:36.442Z,13.63
2023-04-23T03:43:02.844Z,20.77
2023-04-23T03:45:30.260Z,23.55
2023-04-23T03:47:56.630Z,17.75
2023-04-23T03:50:22.981Z,15.88
2023-04-23T03:52:52.438Z,22.35
2023-04-23T03:55:20.620Z,20.02
2023-04-23T03:57:46.982Z,21.83
2023-04-23T04:00:13.691Z,18.23
2023-04-23T04:02:41.017Z,16.67
2023-04-23T04:05:07.965Z,20.17
2023-04-23T04:07:35.537Z,18.08
2023-04-23T04:10:03.276Z,16.98
2023-04-23T04:12:29.632Z,15.55
2023-04-23T04:14:56.416Z,22.30
2023-04-23T04:17:22.882Z,25.27
2023-04-23T04:19:49.368Z,23.58
2023-04-23T04:22:16.210Z,16.77
2023-04-23T04:24:43.812Z,21.98
2023-04-23T04:27:11.578Z,19.05
2023-04-23T04:29:40.746Z,15.55
2023-04-23T04:32:08.506Z,21.38
2023-04-23T04:34:36.123Z,20.88
2023-04-23T04:37:02.436Z,18.95
2023-04-23T04:39:28.893Z,21.05
2023-04-23T04:41:55.360Z,19.80
2023-04-23T04:44:22.064Z,23.38
2023-04-23T04:46:48.456Z,20.60
2023-04-23T04:49:15.191Z,21.08
2023-04-23T04:51:41.619Z,17.15
2023-04-23T04:54:08.048Z,18.20
2023-04-23T04:56:34.861Z,22.20
2023-04-23T04:59:01.595Z,22.35
2023-04-23T05:01:28.930Z,19.98
2023-04-23T05:03:56.297Z,19.60
2023-04-23T05:06:23.074Z,24.00
2023-04-23T05:08:49.583Z,21.02
2023-04-23T05:11:16.742Z,20.80
2023-04-23T05:13:43.726Z,19.55
2023-04-23T05:16:10.976Z,20.60
2023-04-23T05:18:37.893Z,21.20
2023-04-23T05:21:04.503Z,16.05
2023-04-23T05:23:30.971Z,17.92
2023-04-23T05:25:58.670Z,16.67
2023-04-23T05:28:25.368Z,18.70
2023-04-23T05:30:52.049Z,19.13
2023-04-23T05:33:18.512Z,18.50
2023-04-23T05:35:44.863Z,19.17
2023-04-23T05:38:11.691Z,17.52
2023-04-23T05:40:38.523Z,20.42
2023-04-23T05:43:04.914Z,15.25
2023-04-23T05:45:31.221Z,19.10
2023-04-23T05:47:57.661Z,16.08
2023-04-23T05:50:24.044Z,21.23
2023-04-23T05:52:50.628Z,23.35
2023-04-23T05:55:18.308Z,16.85
2023-04-23T05:57:44.704Z,17.77
2023-04-23T06:00:11.834Z,16.23
2023-04-23T06:02:38.690Z,18.73
2023-04-23T06:05:06.220Z,18.52
2023-04-23T06:07:32.871Z,20.08
2023-04-23T06:09:59.448Z,20.17
2023-04-23T06:12:25.964Z,16.08
2023-04-23T06:14:52.706Z,18.08
2023-04-23T06:17:19.247Z,16.13
2023-04-23T06:19:45.661Z,14.73
2023-04-23T06:22:12.023Z,16.77
2023-04-23T06:24:38.907Z,23.85
2023-04-23T06:27:05.417Z,15.88
2023-04-23T06:29:32.058Z,19.42
2023-04-23T06:32:01.728Z,17.75
2023-04-23T06:34:28.037Z,14.60
2023-04-23T06:36:54.445Z,14.93
2023-04-23T06:39:21.309Z,15.35
2023-04-23T06:41:47.688Z,12.80
2023-04-23T06:44:14.021Z,18.88
2023-04-23T06:46:40.470Z,13.00
2023-04-23T06:49:06.897Z,11.55
2023-04-23T06:51:34.588Z,17.25
2023-04-23T06:54:00.976Z,13.52
2023-04-23T06:56:27.515Z,15.25
2023-04-23T06:58:53.858Z,9.98
2023-04-23T07:01:20.389Z,11.25
2023-04-23T07:03:49.293Z,13.93
2023-04-23T07:06:16.124Z,15.38
2023-04-23T07:08:43.175Z,12.07
2023-04-23T07:11:10.644Z,14.98
2023-04-23T07:13:37.333Z,11.77
2023-04-23T07:16:03.811Z,11.32
2023-04-23T07:18:30.235Z,13.23
2023-04-23T07:20:56.750Z,9.73
2023-04-23T07:23:23.143Z,14.27
2023-04-23T07:25:49.484Z,12.57
2023-04-23T07:28:15.820Z,11.43
2023-04-23T07:30:42.214Z,14.20
2023-04-23T07:33:08.681Z,12.00
2023-04-23T07:35:35.257Z,9.98
2023-04-23T07:38:01.687Z,9.60
2023-04-23T07:40:28.063Z,11.70
2023-04-23T07:42:54.523Z,9.77
2023-04-23T07:45:21.459Z,13.40
2023-04-23T07:47:48.102Z,12.75
2023-04-23T07:50:14.893Z,10.02
2023-04-23T07:52:41.547Z,7.60
2023-04-23T07:55:08.314Z,11.77
2023-04-23T07:57:34.683Z,10.13
2023-04-23T08:00:01.544Z,12.45
2023-04-23T08:02:28.467Z,9.63
2023-04-23T08:04:55.447Z,8.88
2023-04-23T08:07:22.259Z,10.38
2023-04-23T08:09:49.039Z,8.20
2023-04-23T08:12:17.462Z,10.20
2023-04-23T08:14:46.727Z,13.13
2023-04-23T08:17:13.267Z,8.38
2023-04-23T08:19:39.874Z,11.27
2023-04-23T08:22:06.468Z,14.15
2023-04-23T08:24:32.805Z,10.15
2023-04-23T08:26:59.228Z,8.65
2023-04-23T08:29:25.674Z,11.35
2023-04-23T08:31:52.131Z,13.77
2023-04-23T08:34:18.583Z,11.25
2023-04-23T08:36:46.337Z,11.48
2023-04-23T08:39:12.825Z,14.75
2023-04-23T08:41:42.620Z,12.68
2023-04-23T08:44:11.940Z,12.48
2023-04-23T08:46:42.007Z,9.40
2023-04-23T08:49:09.222Z,12.60
2023-04-23T08:51:38.715Z,12.93
2023-04-23T08:54:08.363Z,10.93
2023-04-23T08:56:37.212Z,9.15
2023-04-23T08:59:04.066Z,9.75
2023-04-23T09:01:30.697Z,11.95
2023-04-23T09:04:02.383Z,11.68
2023-04-23T09:06:29.488Z,11.68
2023-04-23T09:08:55.936Z,11.85
2023-04-23T09:11:23.860Z,15.18
2023-04-23T09:13:50.442Z,11.05
2023-04-23T09:16:16.797Z,11.25
2023-04-23T09:18:43.654Z,11.13
2023-04-23T09:21:10.697Z,14.07
2023-04-23T09:23:38.871Z,9.68
2023-04-23T09:26:08.411Z,14.63
2023-04-23T09:28:38.217Z,10.82
2023-04-23T09:31:06.103Z,10.35
2023-04-23T09:33:35.412Z,17.40
2023-04-23T09:36:12.123Z,11.90
2023-04-23T09:38:40.913Z,10.90
2023-04-23T09:41:26.480Z,9.55
2023-04-23T09:43:53.583Z,11.68
2023-04-23T09:46:31.966Z,8.85
2023-04-23T09:48:58.388Z,12.52
2023-04-23T09:51:25.344Z,10.18
2023-04-23T09:53:51.767Z,11.82
2023-04-23T09:56:19.814Z,10.20
2023-04-23T09:58:46.517Z,8.60
2023-04-23T10:01:15.290Z,9.93
2023-04-23T10:03:44.621Z,14.40
2023-04-23T10:06:25.939Z,15.18
2023-04-23T10:11:25.074Z,10.98
2023-04-23T10:13:53.428Z,13.75
2023-04-23T10:16:23.236Z,10.48
2023-04-23T10:18:55.218Z,8.90
2023-04-23T10:21:23.823Z,9.48
2023-04-23T10:23:51.294Z,8.40
2023-04-23T10:26:20.142Z,6.25
2023-04-23T10:28:47.468Z,9.55
2023-04-23T10:31:13.837Z,11.57
2023-04-23T10:33:53.568Z,10.90
2023-04-23T10:36:25.677Z,11.13
2023-04-23T10:38:58.002Z,6.93
2023-04-23T10:41:29.087Z,10.05
2023-04-23T10:43:55.409Z,7.50
2023-04-23T10:46:27.943Z,9.68
2023-04-23T10:49:06.909Z,8.52
2023-04-23T10:52:14.808Z,6.85
2023-04-23T10:54:20.763Z,5.40
2023-04-23T10:56:57.716Z,11.30
2023-04-23T10:59:24.168Z,6.65
2023-04-23T11:01:50.776Z,5.40
2023-04-23T11:04:23.978Z,6.32
2023-04-23T11:06:51.986Z,7.40
2023-04-23T11:09:28.524Z,11.50
2023-04-23T11:11:55.144Z,6.68
2023-04-23T11:14:32.941Z,8.70
2023-04-23T11:16:59.286Z,6.25
2023-04-23T11:19:25.615Z,5.47
2023-04-23T11:21:54.730Z,5.75
2023-04-23T11:24:22.386Z,9.43
2023-04-23T11:26:51.143Z,10.68
2023-04-23T11:29:18.754Z,6.47
2023-04-23T11:31:58.473Z,12.77
2023-04-23T11:34:28.632Z,7.38
2023-04-23T11:36:55.425Z,8.55
2023-04-23T11:39:24.108Z,2.47
2023-04-23T11:41:52.334Z,7.43
2023-04-23T11:44:20.746Z,4.20
2023-04-23T11:46:48.416Z,12.15
2023-04-23T11:49:15.394Z,6.32
2023-04-23T11:51:43.675Z,9.20
2023-04-23T11:54:11.009Z,8.43
2023-04-23T11:56:37.917Z,8.63
2023-04-23T11:59:04.745Z,6.40
2023-04-23T12:01:44.663Z,6.32
2023-04-23T12:04:12.331Z,7.68
2023-04-23T12:06:41.020Z,11.95
2023-04-23T12:09:07.915Z,6.60
2023-04-23T12:11:35.325Z,3.60
2023-04-23T12:14:01.785Z,9.05
2023-04-23T12:16:39.325Z,5.05
2023-04-23T12:19:16.462Z,7.53
2023-04-23T12:21:49.064Z,6.50
2023-04-23T12:24:15.576Z,9.35
2023-04-23T12:26:43.477Z,7.05
2023-04-23T12:29:12.565Z,4.22
2023-04-23T12:31:39.198Z,9.15
2023-04-23T12:34:09.352Z,8.48
2023-04-23T12:36:36.525Z,9.20
2023-04-23T12:39:19.276Z,5.53
2023-04-23T12:41:45.738Z,9.25
2023-04-23T12:44:12.120Z,6.55
2023-04-23T12:46:38.532Z,8.80
2023-04-23T12:49:05.099Z,8.68
2023-04-23T12:51:31.392Z,6.28
2023-04-23T12:53:57.828Z,9.98
2023-04-23T12:56:24.445Z,2.80
2023-04-23T12:58:50.965Z,2.78
2023-04-23T13:01:17.311Z,6.28
2023-04-23T13:03:43.761Z,3.53
2023-04-23T13:06:10.227Z,6.32
2023-04-23T13:08:36.609Z,2.33
2023-04-23T13:11:02.972Z,1.45
2023-04-23T13:13:29.270Z,1.45
2023-04-23T13:15:55.678Z,2.13
2023-04-23T13:18:22.754Z,1.45
2023-04-23T13:20:49.245Z,2.63
2023-04-23T13:23:15.648Z,4.45
2023-04-23T13:25:42.012Z,2.15
2023-04-23T13:28:08.387Z,3.45
2023-04-23T13:30:34.699Z,6.32
2023-04-23T13:33:01.133Z,2.97
2023-04-23T13:35:27.562Z,3.78
2023-04-23T13:37:53.888Z,6.43
2023-04-23T13:40:20.647Z,7.50
2023-04-23T13:42:49.475Z,3.53
2023-04-23T13:45:16.114Z,8.30
2023-04-23T13:47:42.557Z,4.80
2023-04-23T13:50:10.349Z,11.30
2023-04-23T13:52:38.232Z,9.13
2023-04-23T13:55:05.007Z,8.30
2023-04-23T13:57:31.316Z,8.35
2023-04-23T13:59:58.408Z,6.55
2023-04-23T14:02:24.937Z,7.63
2023-04-23T14:04:51.524Z,4.07
2023-04-23T14:07:17.869Z,9.27
2023-04-23T14:09:46.501Z,9.20
2023-04-23T14:12:12.889Z,6.40
2023-04-23T14:14:39.333Z,8.70
2023-04-23T14:17:05.712Z,9.60
2023-04-23T14:19:34.600Z,8.10
2023-04-23T14:22:01.004Z,9.30
2023-04-23T14:24:34.422Z,9.60
2023-04-23T14:29:51.293Z,6.25
2023-04-23T14:32:17.764Z,6.03
2023-04-23T14:34:44.449Z,7.80
2023-04-23T14:37:11.335Z,5.28
2023-04-23T14:39:37.728Z,6.85
2023-04-23T14:42:04.170Z,6.10
2023-04-23T14:44:30.563Z,4.93
2023-04-23T14:46:57.025Z,3.90
2023-04-23T14:49:24.021Z,5.60
2023-04-23T14:51:53.975Z,6.03
2023-04-23T14:54:20.875Z,3.53
2023-04-23T14:56:47.230Z,3.53
2023-04-23T14:59:13.912Z,4.82
2023-04-23T15:01:40.485Z,4.95
2023-04-23T15:04:07.005Z,7.65
2023-04-23T15:06:33.383Z,8.63
2023-04-23T15:08:59.800Z,3.28
2023-04-23T15:11:26.246Z,6.30
2023-04-23T15:13:57.670Z,9.70
2023-04-23T15:16:44.191Z,5.88
2023-04-23T15:19:13.335Z,3.40
2023-04-23T15:21:41.914Z,3.05
2023-04-23T15:24:08.434Z,6.38
2023-04-23T15:26:34.969Z,3.58
2023-04-23T15:29:05.023Z,4.80
2023-04-23T15:31:31.681Z,4.00
2023-04-23T15:33:58.138Z,5.20
2023-04-23T15:36:24.479Z,4.53
2023-04-23T15:38:50.912Z,4.45
2023-04-23T15:41:17.733Z,6.60
2023-04-23T15:43:44.174Z,3.45
2023-04-23T15:46:10.742Z,2.25
2023-04-23T15:48:38.365Z,7.35
2023-04-23T15:51:04.979Z,1.73
2023-04-23T15:53:31.393Z,1.80
2023-04-23T15:55:57.919Z,2.80
2023-04-23T15:58:24.341Z,3.20
2023-04-23T16:00:50.826Z,2.47
2023-04-23T16:03:17.276Z,3.20
2023-04-23T16:05:44.747Z,4.82
2023-04-23T16:08:11.865Z,1.90
2023-04-23T16:10:38.314Z,3.53
2023-04-23T16:13:06.071Z,2.75
2023-04-23T16:15:32.529Z,3.53
2023-04-23T16:18:00.190Z,2.95
2023-04-23T16:20:28.120Z,1.17
2023-04-23T16:22:54.721Z,2.20
2023-04-23T16:25:21.204Z,2.97
2023-04-23T16:27:47.806Z,2.80
2023-04-23T16:30:14.272Z,4.53
2023-04-23T16:32:40.848Z,3.05
2023-04-23T16:35:07.870Z,2.55
2023-04-23T16:37:34.519Z,5.72
2023-04-23T16:40:01.391Z,2.33
2023-04-23T16:42:27.805Z,4.75
2023-04-23T16:44:54.213Z,1.92
2023-04-23T16:47:20.784Z,3.28
2023-04-23T16:49:47.170Z,1.85
2023-04-23T16:52:13.591Z,1.58
2023-04-23T16:54:40.096Z,1.95
2023-04-23T16:57:07.441Z,3.42
2023-04-23T16:59:33.982Z,1.38
2023-04-23T17:02:00.496Z,3.90
2023-04-23T17:04:27.134Z,1.17
2023-04-23T17:06:53.551Z,4.35
2023-04-23T17:09:20.121Z,1.33
2023-04-23T17:11:46.619Z,3.65
2023-04-23T17:14:13.046Z,1.55
2023-04-23T17:16:39.594Z,2.83
2023-04-23T17:19:06.258Z,4.00
2023-04-23T17:21:32.692Z,1.85
2023-04-23T17:23:59.190Z,2.95
2023-04-23T17:26:25.588Z,4.78
2023-04-23T17:28:51.980Z,3.45
2023-04-23T17:31:18.550Z,2.10
2023-04-23T17:33:45.517Z,2.95
2023-04-23T17:36:11.987Z,3.47
2023-04-23T17:38:38.395Z,1.60
2023-04-23T17:41:04.903Z,3.63
2023-04-23T17:43:37.358Z,2.17
2023-04-23T17:46:03.826Z,3.70
2023-04-23T17:48:30.478Z,4.13
2023-04-23T17:50:57.050Z,2.13
2023-04-23T17:53:23.518Z,1.88
2023-04-23T17:55:49.926Z,4.43
2023-04-23T17:58:16.502Z,3.13
2023-04-23T18:00:42.976Z,2.97
2023-04-23T18:03:10.022Z,3.85
2023-04-23T18:05:36.529Z,5.82
2023-04-23T18:08:03.036Z,3.00
2023-04-23T18:10:29.848Z,3.85
2023-04-23T18:12:56.594Z,2.78
2023-04-23T18:15:23.026Z,3.95
2023-04-23T18:17:50.359Z,5.55
2023-04-23T18:20:16.830Z,4.38
2023-04-23T18:22:44.276Z,4.55
2023-04-23T18:25:11.371Z,3.08
2023-04-23T18:27:37.964Z,2.47
2023-04-23T18:30:05.874Z,2.45
2023-04-23T18:32:37.509Z,2.53
2023-04-23T18:35:08.003Z,1.35
2023-04-23T18:37:48.152Z,1.52
2023-04-23T18:40:14.546Z,6.50
2023-04-23T18:42:41.033Z,2.05
2023-04-23T18:45:07.930Z,3.08
2023-04-23T18:47:44.272Z,2.60
2023-04-23T18:50:29.055Z,1.60
2023-04-23T18:52:55.780Z,1.98
2023-04-23T18:55:22.166Z,1.65
2023-04-23T18:57:48.606Z,5.15
2023-04-23T19:00:15.198Z,1.80
2023-04-23T19:02:41.737Z,2.17
2023-04-23T19:05:08.422Z,1.55
2023-04-23T19:07:37.224Z,2.25
2023-04-23T19:10:03.893Z,1.20
2023-04-23T19:12:30.418Z,1.50
2023-04-23T19:14:56.878Z,1.92
2023-04-23T19:17:23.247Z,2.75
2023-04-23T19:19:49.749Z,3.83
2023-04-23T19:22:16.125Z,3.60
2023-04-23T19:24:42.477Z,1.73
2023-04-23T19:27:09.114Z,2.20
2023-04-23T19:29:35.534Z,1.88
2023-04-23T19:32:01.915Z,1.80
2023-04-23T19:34:28.226Z,2.78
2023-04-23T19:36:54.601Z,3.28
2023-04-23T19:39:23.409Z,2.45
2023-04-23T19:41:49.815Z,4.10
2023-04-23T19:44:16.161Z,2.50
2023-04-23T19:46:42.500Z,1.77
2023-04-23T19:49:08.892Z,3.38
2023-04-23T19:51:37.928Z,3.67
2023-04-23T19:54:04.969Z,2.85
2023-04-23T19:56:31.443Z,2.30
2023-04-23T19:58:57.852Z,2.78
2023-04-23T20:01:24.897Z,2.28
2023-04-23T20:03:53.540Z,4.05
2023-04-23T20:06:20.864Z,2.50
2023-04-23T20:09:06.686Z,2.42
2023-04-23T20:11:36.016Z,3.75
2023-04-23T20:14:02.752Z,2.88
2023-04-23T20:16:29.143Z,2.67
2023-04-23T20:18:56.057Z,3.25
2023-04-23T20:21:22.840Z,3.20
2023-04-23T20:23:50.874Z,2.70
2023-04-23T20:26:17.702Z,3.17
2023-04-23T20:28:46.296Z,3.83
2023-04-23T20:31:12.716Z,3.40
2023-04-23T20:33:39.086Z,3.95
2023-04-23T20:36:06.726Z,2.45
2023-04-23T20:38:33.181Z,4.88
2023-04-23T20:41:02.509Z,6.97
2023-04-23T20:43:29.651Z,3.33
2023-04-23T20:45:56.732Z,4.28
2023-04-23T20:48:25.714Z,2.13
2023-04-23T20:50:52.621Z,3.97
2023-04-23T20:53:18.954Z,2.72
2023-04-23T20:55:45.503Z,1.70
2023-04-23T20:58:11.960Z,3.20
2023-04-23T21:00:38.704Z,2.65
2023-04-23T21:03:06.061Z,1.50
2023-04-23T21:05:32.621Z,2.38
2023-04-23T21:07:59.086Z,1.77
2023-04-23T21:10:25.752Z,1.33
2023-04-23T21:12:52.395Z,3.65
2023-04-23T21:15:18.914Z,2.78
2023-04-23T21:17:46.100Z,1.38
2023-04-23T21:20:13.454Z,3.03
2023-04-23T21:22:39.919Z,2.60
2023-04-23T21:25:06.497Z,3.53
2023-04-23T21:27:33.295Z,2.20
2023-04-23T21:30:00.789Z,3.88
2023-04-23T21:32:29.975Z,3.22
2023-04-23T21:34:56.535Z,4.22
2023-04-23T21:37:22.990Z,4.43
2023-04-23T21:39:49.352Z,2.25
2023-04-23T21:42:15.763Z,3.28
2023-04-23T21:44:42.426Z,6.43
2023-04-23T21:47:08.915Z,3.78
2023-04-23T21:49:35.747Z,2.92
2023-04-23T21:52:02.256Z,2.20
2023-04-23T21:54:28.891Z,4.20
2023-04-23T21:56:56.679Z,3.45
2023-04-23T21:59:24.489Z,3.30
2023-04-23T22:01:50.898Z,3.65
2023-04-23T22:04:18.566Z,1.95
2023-04-23T22:06:46.479Z,1.92
2023-04-23T22:09:13.568Z,5.45
2023-04-23T22:11:42.569Z,1.70
2023-04-23T22:14:15.604Z,2.78
2023-04-23T22:16:42.122Z,1.35
2023-04-23T22:19:08.599Z,1.63
2023-04-23T22:21:35.054Z,1.77
2023-04-23T22:24:03.657Z,3.15
2023-04-23T22:26:30.114Z,2.10
2023-04-23T22:28:56.544Z,2.97
2023-04-23T22:31:22.989Z,1.85
2023-04-23T22:33:49.359Z,2.45
2023-04-23T22:36:16.874Z,1.67
2023-04-23T22:38:43.402Z,1.23
2023-04-23T22:41:09.766Z,3.13
2023-04-23T22:43:36.068Z,5.97
2023-04-23T22:46:02.529Z,3.30
2023-04-23T22:48:29.088Z,1.38
2023-04-23T22:50:55.530Z,2.85
2023-04-23T22:53:21.879Z,6.05
2023-04-23T22:55:49.449Z,2.25
2023-04-23T22:58:15.912Z,1.98
2023-04-23T23:00:42.329Z,2.80
2023-04-23T23:03:09.357Z,1.98
2023-04-23T23:05:35.797Z,2.53
2023-04-23T23:08:02.311Z,2.55
2023-04-23T23:10:28.756Z,2.78
2023-04-23T23:12:55.307Z,3.55
2023-04-23T23:15:21.618Z,0.63
2023-04-23T23:17:47.977Z,1.23
2023-04-23T23:20:14.669Z,2.53
2023-04-23T23:22:40.994Z,1.85
2023-04-23T23:25:07.841Z,0.77
2023-04-23T23:27:34.302Z,1.88
2023-04-23T23:30:05.496Z,1.13
2023-04-23T23:32:32.766Z,2.17
2023-04-23T23:35:00.188Z,0.90
2023-04-23T23:37:26.820Z,1.30
2023-04-23T23:39:53.172Z,1.05
2023-04-23T23:42:19.529Z,0.47
2023-04-23T23:44:45.906Z,1.35
2023-04-23T23:47:12.242Z,2.20
2023-04-23T23:49:38.620Z,2.33
2023-04-23T23:52:04.965Z,2.38
2023-04-23T23:54:31.343Z,0.93
2023-04-23T23:56:58.247Z,1.55
2023-04-23T23:59:24.657Z,0.45
